Flight Track Log - Related Links

Times and Time Zones

All times are in EDT time to prevent confusion due to time zone crossing. See the SWA484 flight status page for this flight to view local times or setup timezone preferences in your user account.


Time Position Orientation Groundspeed Altitude Reporting Facility
EDT Latitude Longitude Course Direction KTS MPH feet Rate Location/Type
Fri 09:55:29 AM 28.4000 -81.3000 139° Southeast 164 189 800  Level Orlando TRACON
Fri 09:56:41 AM 28.3500 -81.2500 139° Southeast 231 266 3,300 2,346 Climbing Orlando TRACON
Fri 09:57:42 AM 28.3833 -81.2333 24° Northeast 221 254 6,000 2,826 Climbing Orlando TRACON
Fri 09:58:42 AM 28.4667 -81.2500 350° North 278 320 9,000 3,016 Climbing Orlando TRACON
Fri 10:00:51 AM 28.6408 -81.2842 350° North 310 357 15,500 2,825 Climbing Jacksonville Center
Fri 10:01:51 AM 28.7369 -81.3039 350° North 335 386 17,900 2,350 Climbing Jacksonville Center
Fri 10:02:51 AM 28.8417 -81.3306 347° North 361 415 20,200 2,550 Climbing Jacksonville Center
Fri 10:03:51 AM 28.9506 -81.3572 348° North 380 437 23,000 2,550 Climbing Jacksonville Center
Fri 10:04:51 AM 29.0636 -81.3817 349° North 399 459 25,300 2,231 Climbing Jacksonville Center
Fri 10:05:52 AM 29.1806 -81.3989 353° North 412 474 27,500 2,050 Climbing Jacksonville Center
Fri 10:06:51 AM 29.3017 -81.4114 355° North 422 486 29,400 2,168 Climbing Jacksonville Center
Fri 10:07:51 AM 29.4314 -81.4239 355° North 428 493 31,800 2,100 Climbing Jacksonville Center
Fri 10:08:51 AM 29.5506 -81.4364 355° North 428 493 33,600 1,800 Climbing Jacksonville Center
Fri 10:09:51 AM 29.6675 -81.4394 359° North 428 493 35,400 1,700 Climbing Jacksonville Center
Fri 10:10:51 AM 29.7842 -81.4281 North 417 480 37,000 800 Climbing Jacksonville Center
Fri 10:11:51 AM 29.9008 -81.4142 North 417 480 37,000  Level Jacksonville Center
Fri 10:12:51 AM 30.0053 -81.4056 North 417 480 37,000  Level Jacksonville Center
Fri 10:13:51 AM 30.1200 -81.3942 North 417 480 37,000  Level Jacksonville Center
Fri 10:14:51 AM 30.2347 -81.3828 North 417 480 37,000  Level Jacksonville Center
Fri 10:15:51 AM 30.3472 -81.3689 North 417 480 37,000  Level Jacksonville Center
Fri 10:16:51 AM 30.4619 -81.3597 North 412 474 37,000  Level Jacksonville Center
Fri 10:17:52 AM 30.5767 -81.3483 North 407 468 37,000  Level Jacksonville Center
Fri 10:18:51 AM 30.6914 -81.3392 North 407 468 37,000  Level Jacksonville Center
Fri 10:19:51 AM 30.8081 -81.3300 North 407 468 37,000  Level Jacksonville Center
Fri 10:20:51 AM 30.9228 -81.3186 North 407 468 37,000  Level Jacksonville Center
Fri 10:21:51 AM 31.0397 -81.3092 North 407 468 37,000  Level Jacksonville Center
Fri 10:22:51 AM 31.1544 -81.2975 North 407 468 37,000  Level Jacksonville Center
Fri 10:23:52 AM 31.2692 -81.2883 North 407 468 37,000  Level Jacksonville Center
Fri 10:24:51 AM 31.3942 -81.2717 North 407 468 37,000  Level Jacksonville Center
Fri 10:25:51 AM 31.5108 -81.2597 North 407 468 37,000  Level Jacksonville Center
Fri 10:26:52 AM 31.6131 -81.2508 North 407 468 37,000  Level Jacksonville Center
Fri 10:27:51 AM 31.7381 -81.2389 North 407 468 37,000  Level Jacksonville Center
Fri 10:28:51 AM 31.8403 -81.2272 North 407 468 37,000  Level Jacksonville Center
Fri 10:29:52 AM 31.9572 -81.2200 North 407 468 37,000  Level Jacksonville Center
Fri 10:30:51 AM 32.0719 -81.2108 North 407 468 37,000  Level Jacksonville Center
Fri 10:31:51 AM 32.1797 -81.1572 23° Northeast 407 468 37,000  Level Jacksonville Center
Fri 10:32:51 AM 32.2694 -81.0178 53° Northeast 433 498 37,000  Level Jacksonville Center
Fri 10:33:51 AM 32.3408 -80.9083 52° Northeast 460 529 37,000  Level Jacksonville Center
Fri 10:34:51 AM 32.4183 -80.7811 54° Northeast 470 541 37,000  Level Jacksonville Center
Fri 10:35:52 AM 32.4997 -80.6561 52° Northeast 470 541 37,000  Level Jacksonville Center
Fri 10:36:51 AM 32.5808 -80.5308 52° Northeast 470 541 37,000  Level Jacksonville Center
Fri 10:37:51 AM 32.6619 -80.4028 53° Northeast 470 541 37,000  Level Jacksonville Center
Fri 10:38:51 AM 32.7408 -80.2772 53° Northeast 476 548 37,000  Level Jacksonville Center
Fri 10:39:51 AM 32.8294 -80.1361 53° Northeast 476 548 37,000  Level Jacksonville Center
Fri 10:40:52 AM 32.9189 -80.0194 48° Northeast 481 554 37,000  Level Jacksonville Center
Fri 10:41:51 AM 33.0236 -79.9419 32° Northeast 452 520 37,000  Level Jacksonville Center
Fri 10:42:51 AM 33.1303 -79.8639 31° Northeast 452 520 37,000  Level Jacksonville Center
Fri 10:43:51 AM 33.2369 -79.7883 31° Northeast 447 514 37,000  Level Jacksonville Center
Fri 10:44:52 AM 33.3414 -79.7125 31° Northeast 441 507 37,000  Level Jacksonville Center
Fri 10:45:51 AM 33.4481 -79.6342 31° Northeast 441 507 37,000  Level Jacksonville Center
Fri 10:46:51 AM 33.5522 -79.5556 32° Northeast 441 507 37,000  Level Jacksonville Center
Fri 10:47:51 AM 33.6567 -79.4792 31° Northeast 441 507 37,000  Level Jacksonville Center
Fri 10:48:51 AM 33.7406 -79.4161 32° Northeast 421 484 37,000  Level Jacksonville Center
Fri 10:49:51 AM 33.8489 -79.3392 31° Northeast 421 484 37,000  Level Jacksonville Center
Fri 10:51:54 AM 34.0597 -79.1789 32° Northeast 447 514 37,000  Level Washington Center
Fri 10:52:52 AM 34.1642 -79.1031 31° Northeast 447 514 37,000  Level Washington Center
Fri 10:53:53 AM 34.2708 -79.0247 31° Northeast 447 514 37,000  Level Washington Center
Fri 10:54:54 AM 34.3772 -78.9461 31° Northeast 447 514 37,000  Level Washington Center
Fri 10:55:55 AM 34.4839 -78.8647 32° Northeast 447 514 37,000  Level Washington Center
Fri 10:56:53 AM 34.5883 -78.7808 33° Northeast 447 514 37,000  Level Washington Center
Fri 10:57:53 AM 34.7053 -78.6944 31° Northeast 447 514 37,000  Level Washington Center
Fri 10:58:54 AM 34.8011 -78.6194 33° Northeast 447 514 37,000  Level Washington Center
Fri 10:59:55 AM 34.9033 -78.5397 33° Northeast 442 509 37,000  Level Washington Center
Fri 11:00:52 AM 35.0097 -78.4600 32° Northeast 442 509 37,000  Level Washington Center
Fri 11:01:53 AM 35.1117 -78.3800 33° Northeast 442 509 37,000  Level Washington Center
Fri 11:02:54 AM 35.2158 -78.2969 33° Northeast 447 514 37,000  Level Washington Center
Fri 11:03:55 AM 35.3197 -78.2167 32° Northeast 447 514 37,000  Level Washington Center
Fri 11:04:55 AM 35.4239 -78.1358 32° Northeast 441 507 37,000  Level Washington Center
Fri 11:05:53 AM 35.5278 -78.0550 32° Northeast 441 507 37,000  Level Washington Center
Fri 11:06:54 AM 35.6336 -77.9739 32° Northeast 441 507 37,000  Level Washington Center
Fri 11:07:55 AM 35.7503 -77.8853 32° Northeast 447 514 37,000  Level Washington Center
Fri 11:08:53 AM 35.8561 -77.8036 32° Northeast 447 514 37,000  Level Washington Center
Fri 11:09:54 AM 35.9578 -77.7192 34° Northeast 447 514 37,000  Level Washington Center
Fri 11:10:55 AM 36.0636 -77.6269 35° Northeast 447 514 37,000  Level Washington Center
Fri 11:11:55 AM 36.1653 -77.5319 37° Northeast 457 526 37,000  Level Washington Center
Fri 11:12:53 AM 36.2628 -77.4417 37° Northeast 449 517 37,000  Level Washington Center
Fri 11:13:54 AM 36.3622 -77.3458 38° Northeast 444 511 37,000  Level Washington Center
Fri 11:14:54 AM 36.4511 -77.2628 37° Northeast 444 511 37,000  Level Washington Center
Fri 11:15:55 AM 36.5506 -77.1692 37° Northeast 444 511 37,000  Level Washington Center
Fri 11:16:55 AM 36.6475 -77.0753 38° Northeast 444 511 37,000  Level Washington Center
Fri 11:17:53 AM 36.7467 -76.9814 37° Northeast 444 511 37,000  Level Washington Center
Fri 11:18:54 AM 36.8481 -76.8897 36° Northeast 444 511 37,000  Level Washington Center
Fri 11:19:55 AM 36.9492 -76.7978 36° Northeast 444 511 37,000  Level Washington Center
Fri 11:20:52 AM 37.0500 -76.7083 35° Northeast 444 511 37,000  Level Washington Center
Fri 11:21:53 AM 37.1489 -76.6186 36° Northeast 444 511 37,000  Level Washington Center
Fri 11:22:54 AM 37.2497 -76.5258 36° Northeast 444 511 37,000  Level Washington Center
Fri 11:23:55 AM 37.3506 -76.4331 36° Northeast 444 511 37,000  Level Washington Center
Fri 11:24:55 AM 37.4597 -76.3347 36° Northeast 444 511 37,000  Level Washington Center
Fri 11:25:52 AM 37.5583 -76.2414 37° Northeast 444 511 37,000  Level Washington Center
Fri 11:26:53 AM 37.6400 -76.1686 35° Northeast 444 511 37,000  Level Washington Center
Fri 11:27:54 AM 37.7614 -76.0619 35° Northeast 439 505 37,000  Level Washington Center
Fri 11:28:55 AM 37.8597 -75.9625 39° Northeast 444 511 37,000  Level Washington Center
Fri 11:29:53 AM 37.9600 -75.8708 36° Northeast 444 511 37,000  Level Washington Center
Fri 11:30:55 AM 38.0603 -75.7764 37° Northeast 444 511 37,000  Level Washington Center
Fri 11:31:53 AM 38.1606 -75.6842 36° Northeast 449 517 37,000  Level Washington Center
Fri 11:32:54 AM 38.2628 -75.5892 36° Northeast 449 517 37,000  Level Washington Center
Fri 11:33:55 AM 38.3692 -75.5042 32° Northeast 454 522 37,000  Level Washington Center
Fri 11:34:53 AM 38.4836 -75.4539 19° North 437 503 37,000  Level Washington Center
Fri 11:35:53 AM 38.6006 -75.4111 16° North 432 497 37,000  Level Washington Center
Fri 11:36:54 AM 38.7128 -75.3575 20° North 432 497 37,000  Level Washington Center
Fri 11:37:55 AM 38.8317 -75.3064 19° North 432 497 37,000 -353 Level Washington Center
Fri 11:38:53 AM 38.9483 -75.2633 16° North 437 503 36,300 -857 Descending Washington Center
Fri 11:39:54 AM 39.0647 -75.2147 18° North 437 503 35,300 -1,131 Descending Washington Center
Fri 11:40:55 AM 39.1750 -75.1633 20° North 437 503 34,000 -1,140 Descending Washington Center
Fri 11:41:55 AM 39.2875 -75.1197 17° North 427 491 33,000 -508 Descending Washington Center
Fri 11:42:53 AM 39.3831 -75.0197 39° Northeast 422 486 33,000  Level Washington Center
Fri 11:43:54 AM 39.4700 -74.9142 43° Northeast 422 486 33,000 -246 Level Washington Center
Fri 11:44:55 AM 39.5589 -74.8056 43° Northeast 428 493 32,500 -706 Descending Washington Center
Fri 11:45:53 AM 39.6497 -74.6994 42° Northeast 434 499 31,600 -958 Descending Washington Center
Fri 11:46:54 AM 39.7386 -74.5906 43° Northeast 439 505 30,600 -1,005 Descending Washington Center
Fri 11:49:16 AM 39.9492 -74.3397 42° Northeast 408 470 28,200 -1,010 Descending New York Center
Fri 11:50:16 AM 40.0336 -74.2356 43° Northeast 414 476 27,200 -992 Descending New York Center
Fri 11:51:17 AM 40.1200 -74.1339 42° Northeast 414 476 26,200 -1,091 Descending New York Center
Fri 11:52:17 AM 40.2039 -74.0322 43° Northeast 409 471 25,000 -595 Descending New York Center
Fri 11:53:18 AM 40.2839 -73.9325 44° Northeast 399 459 25,000  Level New York Center
Fri 11:55:17 AM 40.4453 -73.7408 42° Northeast 405 466 25,000 -168 Level New York Center
Fri 11:56:17 AM 40.5247 -73.6378 45° Northeast 405 466 24,500 -1,617 Descending New York Center
Fri 11:58:04 AM 40.6725 -73.4497 44° Northeast 402 463 20,500 -1,976 Descending Boston Center
Fri 11:59:04 AM 40.7419 -73.3658 42° Northeast 381 438 19,000 -750 Descending Boston Center
Fri 12:00:04 PM 40.8175 -73.2764 42° Northeast 368 423 19,000  Level Boston Center
Fri 12:01:04 PM 40.8953 -73.1869 41° Northeast 368 423 19,000  Level Boston Center
Fri 12:02:04 PM 40.9750 -73.0972 40° Northeast 368 423 19,000 -550 Level Boston Center
Fri 12:03:04 PM 41.0569 -72.9989 42° Northeast 368 423 17,900 -1,600 Descending Boston Center
Fri 12:04:04 PM 41.1322 -72.9086 42° Northeast 368 423 15,800 -2,127 Descending Boston Center
Fri 12:04:54 PM 41.1931 -72.8400 40° Northeast 361 415 14,000 -2,103 Descending Boston Center
Fri 12:06:01 PM 41.2747 -72.7383 43° Northeast 350 403 11,700 -1,406 Descending Boston Center
Fri 12:07:02 PM 41.3558 -72.7333 North 302 348 11,000 -738 Descending Boston Center
Fri 12:08:03 PM 41.4267 -72.7889 330° Northwest 283 326 10,200 -761 Descending Boston Center
Fri 12:09:16 PM 41.5078 -72.8558 328° Northwest 275 316 9,300 -985 Descending Boston Center
Fri 12:10:17 PM 41.5806 -72.8897 341° North 282 325 8,000 -984 Descending Boston Center
Fri 12:11:18 PM 41.6472 -72.9039 351° North 248 285 7,300 -934 Descending Boston Center
Fri 12:12:19 PM 41.7158 -72.9156 353° North 231 266 6,100 -1,266 Descending Boston Center
Fri 12:13:07 PM 41.7617 -72.8881 24° Northeast 229 264 5,000 -1,266 Descending Boston Center
Fri 12:14:08 PM 41.8161 -72.8494 28° Northeast 227 261 3,800 -1,426 Descending Boston Center
Fri 12:15:09 PM 41.8600 -72.7942 43° Northeast 219 252 2,100 -1,279 Descending Boston Center
Fri 12:16:10 PM 41.8956 -72.7469 45° Northeast 189 217 1,200 -885 Descending Boston Center
Fri 12:17:11 PM 41.9250 -72.7081 44° Northeast 143 165 300 -885 Descending Boston Center

Login

Don't have an account? Register now (free) for customized features, flight alerts, and more!